Time,TemperatureF,DewpointF,PressureIn,WindDirection,WindDirectionDegrees,WindSpeedMPH,WindSpeedGustMPH,Humidity,HourlyPrecipIn,Conditions,Clouds,dailyrainin,SoftwareType,DateUTC
2013-01-26 00:00:00,36.0,-99.9,-100.00,South,191,9.0,9.0,-999,-99.99,,,-99.99,,2013-01-26 07:00:00,
2013-01-26 00:33:00,36.0,-99.9,-100.00,South,191,9.0,9.0,-999,-99.99,,,-99.99,,2013-01-26 07:33:00,
2013-01-26 00:42:00,36.0,-99.9,-100.00,South,191,9.0,9.0,-999,-99.99,,,-99.99,,2013-01-26 07:42:00,
2013-01-26 00:52:00,36.0,-99.9,-100.00,South,191,9.0,9.0,-999,-99.99,,,-99.99,,2013-01-26 07:52:00,
2013-01-26 01:00:00,35.0,-99.9,-100.00,North,6,0.0,4.0,-999,-99.99,,,-99.99,,2013-01-26 08:00:00,
2013-01-26 01:32:00,35.0,-99.9,-100.00,North,6,0.0,4.0,-999,-99.99,,,-99.99,,2013-01-26 08:32:00,
2013-01-26 01:42:00,35.0,-99.9,-100.00,North,6,0.0,4.0,-999,-99.99,,,-99.99,,2013-01-26 08:42:00,
2013-01-26 01:54:00,35.0,-99.9,-100.00,North,6,0.0,4.0,-999,-99.99,,,-99.99,,2013-01-26 08:54:00,
2013-01-26 02:00:00,36.0,-99.9,-100.00,SW,218,4.0,6.0,-999,-99.99,,,-99.99,,2013-01-26 09:00:00,
2013-01-26 02:32:00,36.0,-99.9,-100.00,SW,218,4.0,6.0,-999,-99.99,,,-99.99,,2013-01-26 09:32:00,
2013-01-26 02:42:00,36.0,-99.9,-100.00,SW,218,4.0,6.0,-999,-99.99,,,-99.99,,2013-01-26 09:42:00,
2013-01-26 02:52:00,36.0,-99.9,-100.00,SW,218,4.0,6.0,-999,-99.99,,,-99.99,,2013-01-26 09:52:00,
2013-01-26 03:00:00,29.0,-99.9,-100.00,East,81,5.0,5.0,-999,-99.99,,,-99.99,,2013-01-26 10:00:00,
2013-01-26 03:32:00,29.0,-99.9,-100.00,East,81,5.0,5.0,-999,-99.99,,,-99.99,,2013-01-26 10:32:00,
2013-01-26 03:43:00,29.0,-99.9,-100.00,East,81,5.0,5.0,-999,-99.99,,,-99.99,,2013-01-26 10:43:00,
2013-01-26 03:52:00,29.0,-99.9,-100.00,East,81,5.0,5.0,-999,-99.99,,,-99.99,,2013-01-26 10:52:00,
2013-01-26 04:00:00,33.0,-99.9,-100.00,SW,220,10.0,10.0,-999,-99.99,,,-99.99,,2013-01-26 11:00:00,
2013-01-26 04:32:00,33.0,-99.9,-100.00,SW,220,10.0,10.0,-999,-99.99,,,-99.99,,2013-01-26 11:32:00,
2013-01-26 04:42:00,33.0,-99.9,-100.00,SW,220,10.0,10.0,-999,-99.99,,,-99.99,,2013-01-26 11:42:00,
2013-01-26 04:53:00,33.0,-99.9,-100.00,SW,220,10.0,10.0,-999,-99.99,,,-99.99,,2013-01-26 11:53:00,
2013-01-26 05:00:00,34.0,-99.9,-100.00,SW,236,10.0,12.0,-999,-99.99,,,-99.99,,2013-01-26 12:00:00,
2013-01-26 05:33:00,34.0,-99.9,-100.00,SW,236,10.0,12.0,-999,-99.99,,,-99.99,,2013-01-26 12:33:00,
2013-01-26 05:42:00,34.0,-99.9,-100.00,SW,236,10.0,12.0,-999,-99.99,,,-99.99,,2013-01-26 12:42:00,
2013-01-26 05:53:00,34.0,-99.9,-100.00,SW,236,10.0,12.0,-999,-99.99,,,-99.99,,2013-01-26 12:53:00,
2013-01-26 06:00:00,36.0,-99.9,-100.00,SW,219,14.0,14.0,-999,-99.99,,,-99.99,,2013-01-26 13:00:00,
2013-01-26 06:33:00,36.0,-99.9,-100.00,SW,219,14.0,14.0,-999,-99.99,,,-99.99,,2013-01-26 13:33:00,
2013-01-26 06:42:00,36.0,-99.9,-100.00,SW,219,14.0,14.0,-999,-99.99,,,-99.99,,2013-01-26 13:42:00,
2013-01-26 06:53:00,36.0,-99.9,-100.00,SW,219,14.0,14.0,-999,-99.99,,,-99.99,,2013-01-26 13:53:00,
2013-01-26 07:00:00,35.0,-99.9,-100.00,SSW,207,12.0,16.0,-999,-99.99,,,-99.99,,2013-01-26 14:00:00,
2013-01-26 07:43:00,35.0,-99.9,-100.00,SSW,207,12.0,16.0,-999,-99.99,,,-99.99,,2013-01-26 14:43:00,
2013-01-26 07:53:00,35.0,-99.9,-100.00,SSW,207,12.0,16.0,-999,-99.99,,,-99.99,,2013-01-26 14:53:00,
2013-01-26 08:00:00,36.0,-99.9,-100.00,SW,215,8.0,14.0,-999,-99.99,,,-99.99,,2013-01-26 15:00:00,
2013-01-26 08:33:00,36.0,-99.9,-100.00,SW,215,8.0,14.0,-999,-99.99,,,-99.99,,2013-01-26 15:33:00,
2013-01-26 08:43:00,36.0,-99.9,-100.00,SW,215,8.0,14.0,-999,-99.99,,,-99.99,,2013-01-26 15:43:00,
2013-01-26 08:53:00,36.0,-99.9,-100.00,SW,215,8.0,14.0,-999,-99.99,,,-99.99,,2013-01-26 15:53:00,
2013-01-26 09:00:00,39.0,-99.9,-100.00,SSW,211,15.0,19.0,-999,-99.99,,,-99.99,,2013-01-26 16:00:00,
2013-01-26 09:33:00,39.0,-99.9,-100.00,SSW,211,15.0,19.0,-999,-99.99,,,-99.99,,2013-01-26 16:33:00,
2013-01-26 09:43:00,39.0,-99.9,-100.00,SSW,211,15.0,19.0,-999,-99.99,,,-99.99,,2013-01-26 16:43:00,
2013-01-26 09:53:00,39.0,-99.9,-100.00,SSW,211,15.0,19.0,-999,-99.99,,,-99.99,,2013-01-26 16:53:00,
2013-01-26 10:00:00,40.0,-99.9,-100.00,SSW,201,14.0,17.0,-999,-99.99,,,-99.99,,2013-01-26 17:00:00,
2013-01-26 10:33:00,40.0,-99.9,-100.00,SSW,201,14.0,17.0,-999,-99.99,,,-99.99,,2013-01-26 17:33:00,
2013-01-26 10:42:00,40.0,-99.9,-100.00,SSW,201,14.0,17.0,-999,-99.99,,,-99.99,,2013-01-26 17:42:00,
2013-01-26 10:53:00,40.0,-99.9,-100.00,SSW,201,14.0,17.0,-999,-99.99,,,-99.99,,2013-01-26 17:53:00,
2013-01-26 11:00:00,43.0,-99.9,-100.00,SSW,212,13.0,15.0,-999,-99.99,,,-99.99,,2013-01-26 18:00:00,
2013-01-26 11:42:00,43.0,-99.9,-100.00,SSW,212,13.0,15.0,-999,-99.99,,,-99.99,,2013-01-26 18:42:00,
2013-01-26 11:53:00,43.0,-99.9,-100.00,SSW,212,13.0,15.0,-999,-99.99,,,-99.99,,2013-01-26 18:53:00,
2013-01-26 12:00:00,42.0,-99.9,-100.00,SSW,206,12.0,17.0,-999,-99.99,,,-99.99,,2013-01-26 19:00:00,
2013-01-26 12:33:00,42.0,-99.9,-100.00,SSW,206,12.0,17.0,-999,-99.99,,,-99.99,,2013-01-26 19:33:00,
2013-01-26 12:43:00,42.0,-99.9,-100.00,SSW,206,12.0,17.0,-999,-99.99,,,-99.99,,2013-01-26 19:43:00,
2013-01-26 12:53:00,42.0,-99.9,-100.00,SSW,206,12.0,17.0,-999,-99.99,,,-99.99,,2013-01-26 19:53:00,
2013-01-26 13:00:00,42.0,-99.9,-100.00,South,191,16.0,20.0,-999,-99.99,,,-99.99,,2013-01-26 20:00:00,
2013-01-26 13:32:00,42.0,-99.9,-100.00,South,191,16.0,20.0,-999,-99.99,,,-99.99,,2013-01-26 20:32:00,
2013-01-26 13:42:00,42.0,-99.9,-100.00,South,191,16.0,20.0,-999,-99.99,,,-99.99,,2013-01-26 20:42:00,
2013-01-26 13:52:00,42.0,-99.9,-100.00,South,191,16.0,20.0,-999,-99.99,,,-99.99,,2013-01-26 20:52:00,
2013-01-26 14:00:00,43.0,-99.9,-100.00,SW,221,9.0,12.0,-999,-99.99,,,-99.99,,2013-01-26 21:00:00,
2013-01-26 14:32:00,43.0,-99.9,-100.00,SW,221,9.0,12.0,-999,-99.99,,,-99.99,,2013-01-26 21:32:00,
2013-01-26 14:43:00,43.0,-99.9,-100.00,SW,221,9.0,12.0,-999,-99.99,,,-99.99,,2013-01-26 21:43:00,
2013-01-26 14:52:00,43.0,-99.9,-100.00,SW,221,9.0,12.0,-999,-99.99,,,-99.99,,2013-01-26 21:52:00,
2013-01-26 15:00:00,43.0,-99.9,-100.00,South,179,4.0,5.0,-999,-99.99,,,-99.99,,2013-01-26 22:00:00,
2013-01-26 15:32:00,43.0,-99.9,-100.00,South,179,4.0,5.0,-999,-99.99,,,-99.99,,2013-01-26 22:32:00,
2013-01-26 15:42:00,43.0,-99.9,-100.00,South,179,4.0,5.0,-999,-99.99,,,-99.99,,2013-01-26 22:42:00,
2013-01-26 15:52:00,43.0,-99.9,-100.00,South,179,4.0,5.0,-999,-99.99,,,-99.99,,2013-01-26 22:52:00,
2013-01-26 16:00:00,43.0,-99.9,-100.00,SSE,167,3.0,3.0,-999,-99.99,,,-99.99,,2013-01-26 23:00:00,
2013-01-26 16:33:00,43.0,-99.9,-100.00,SSE,167,3.0,3.0,-999,-99.99,,,-99.99,,2013-01-26 23:33:00,
2013-01-26 16:42:00,43.0,-99.9,-100.00,SSE,167,3.0,3.0,-999,-99.99,,,-99.99,,2013-01-26 23:42:00,
2013-01-26 16:52:00,43.0,-99.9,-100.00,SSE,167,3.0,3.0,-999,-99.99,,,-99.99,,2013-01-26 23:52:00,
2013-01-26 17:00:00,43.0,-99.9,-100.00,SE,125,1.0,1.0,-999,-99.99,,,-99.99,,2013-01-27 00:00:00,
2013-01-26 17:32:00,43.0,-99.9,-100.00,SE,125,1.0,1.0,-999,-99.99,,,-99.99,,2013-01-27 00:32:00,
2013-01-26 17:42:00,43.0,-99.9,-100.00,SE,125,1.0,1.0,-999,-99.99,,,-99.99,,2013-01-27 00:42:00,
2013-01-26 17:52:00,43.0,-99.9,-100.00,SE,125,1.0,1.0,-999,-99.99,,,-99.99,,2013-01-27 00:52:00,
2013-01-26 18:00:00,37.0,-99.9,-100.00,North,5,6.0,6.0,-999,-99.99,,,-99.99,,2013-01-27 01:00:00,
2013-01-26 18:32:00,37.0,-99.9,-100.00,North,5,6.0,6.0,-999,-99.99,,,-99.99,,2013-01-27 01:32:00,
2013-01-26 18:42:00,37.0,-99.9,-100.00,North,5,6.0,6.0,-999,-99.99,,,-99.99,,2013-01-27 01:42:00,
2013-01-26 18:52:00,37.0,-99.9,-100.00,North,5,6.0,6.0,-999,-99.99,,,-99.99,,2013-01-27 01:52:00,
2013-01-26 19:00:00,37.0,-99.9,-100.00,NNE,24,6.0,6.0,-999,-99.99,,,-99.99,,2013-01-27 02:00:00,
2013-01-26 19:32:00,37.0,-99.9,-100.00,NNE,24,6.0,6.0,-999,-99.99,,,-99.99,,2013-01-27 02:32:00,
2013-01-26 19:42:00,37.0,-99.9,-100.00,NNE,24,6.0,6.0,-999,-99.99,,,-99.99,,2013-01-27 02:42:00,
2013-01-26 19:52:00,37.0,-99.9,-100.00,NNE,24,6.0,6.0,-999,-99.99,,,-99.99,,2013-01-27 02:52:00,
2013-01-26 20:00:00,39.0,-99.9,-100.00,East,89,1.0,2.0,-999,-99.99,,,-99.99,,2013-01-27 03:00:00,
2013-01-26 20:32:00,39.0,-99.9,-100.00,East,89,1.0,2.0,-999,-99.99,,,-99.99,,2013-01-27 03:32:00,
2013-01-26 20:42:00,39.0,-99.9,-100.00,East,89,1.0,2.0,-999,-99.99,,,-99.99,,2013-01-27 03:42:00,
2013-01-26 20:52:00,39.0,-99.9,-100.00,East,89,1.0,2.0,-999,-99.99,,,-99.99,,2013-01-27 03:52:00,
2013-01-26 21:00:00,37.0,-99.9,-100.00,NNE,32,0.0,1.0,-999,-99.99,,,-99.99,,2013-01-27 04:00:00,
2013-01-26 21:32:00,37.0,-99.9,-100.00,NNE,32,0.0,1.0,-999,-99.99,,,-99.99,,2013-01-27 04:32:00,
2013-01-26 21:42:00,37.0,-99.9,-100.00,NNE,32,0.0,1.0,-999,-99.99,,,-99.99,,2013-01-27 04:42:00,
2013-01-26 21:52:00,37.0,-99.9,-100.00,NNE,32,0.0,1.0,-999,-99.99,,,-99.99,,2013-01-27 04:52:00,
2013-01-26 22:00:00,36.0,-99.9,-100.00,ESE,122,3.0,4.0,-999,-99.99,,,-99.99,,2013-01-27 05:00:00,
2013-01-26 22:32:00,36.0,-99.9,-100.00,ESE,122,3.0,4.0,-999,-99.99,,,-99.99,,2013-01-27 05:32:00,
2013-01-26 22:42:00,36.0,-99.9,-100.00,ESE,122,3.0,4.0,-999,-99.99,,,-99.99,,2013-01-27 05:42:00,
2013-01-26 22:52:00,36.0,-99.9,-100.00,ESE,122,3.0,4.0,-999,-99.99,,,-99.99,,2013-01-27 05:52:00,
2013-01-26 23:00:00,33.0,-99.9,-100.00,WSW,246,3.0,4.0,-999,-99.99,,,-99.99,,2013-01-27 06:00:00,
2013-01-26 23:32:00,33.0,-99.9,-100.00,WSW,246,3.0,4.0,-999,-99.99,,,-99.99,,2013-01-27 06:32:00,
2013-01-26 23:42:00,33.0,-99.9,-100.00,WSW,246,3.0,4.0,-999,-99.99,,,-99.99,,2013-01-27 06:42:00,
2013-01-26 23:52:00,33.0,-99.9,-100.00,WSW,246,3.0,4.0,-999,-99.99,,,-99.99,,2013-01-27 06:52:00,